sensor_id;sensor_type;location;lat;lon;timestamp;pressure;altitude;pressure_sealevel;temperature;humidity
63395;BME280;49531;-34.520;150.798;2023-05-23T00:01:04;101853.53;;;18.22;40.76
63395;BME280;49531;-34.520;150.798;2023-05-23T00:03:32;101852.69;;;18.28;40.54
63395;BME280;49531;-34.520;150.798;2023-05-23T00:06:00;101843.97;;;18.26;40.47
63395;BME280;49531;-34.520;150.798;2023-05-23T00:08:28;101845.75;;;18.39;40.61
63395;BME280;49531;-34.520;150.798;2023-05-23T00:10:55;101846.72;;;18.44;40.63
63395;BME280;49531;-34.520;150.798;2023-05-23T00:13:22;101847.50;;;18.51;40.64
63395;BME280;49531;-34.520;150.798;2023-05-23T00:15:49;101853.09;;;18.56;40.64
63395;BME280;49531;-34.520;150.798;2023-05-23T00:18:16;101847.66;;;18.63;40.67
63395;BME280;49531;-34.520;150.798;2023-05-23T00:20:44;101847.00;;;18.68;40.83
63395;BME280;49531;-34.520;150.798;2023-05-23T00:23:12;101851.56;;;18.74;40.84
63395;BME280;49531;-34.520;150.798;2023-05-23T00:25:45;101845.00;;;18.81;41.02
63395;BME280;49531;-34.520;150.798;2023-05-23T00:28:18;101837.09;;;18.80;41.08
63395;BME280;49531;-34.520;150.798;2023-05-23T00:30:45;101844.56;;;18.84;41.15
63395;BME280;49531;-34.520;150.798;2023-05-23T00:33:16;101853.03;;;18.94;41.15
63395;BME280;49531;-34.520;150.798;2023-05-23T00:35:47;101853.63;;;18.96;41.37
63395;BME280;49531;-34.520;150.798;2023-05-23T00:38:15;101842.34;;;18.99;41.47
63395;BME280;49531;-34.520;150.798;2023-05-23T00:40:42;101853.94;;;19.07;41.60
63395;BME280;49531;-34.520;150.798;2023-05-23T00:43:09;101851.63;;;19.10;41.52
63395;BME280;49531;-34.520;150.798;2023-05-23T00:45:36;101853.22;;;19.18;41.40
63395;BME280;49531;-34.520;150.798;2023-05-23T00:48:04;101856.28;;;19.21;41.54
63395;BME280;49531;-34.520;150.798;2023-05-23T00:50:32;101840.63;;;19.23;41.77
63395;BME280;49531;-34.520;150.798;2023-05-23T00:53:00;101832.75;;;19.22;41.69
63395;BME280;49531;-34.520;150.798;2023-05-23T00:55:28;101827.25;;;19.28;41.43
63395;BME280;49531;-34.520;150.798;2023-05-23T00:57:56;101826.81;;;19.31;41.56
63395;BME280;49531;-34.520;150.798;2023-05-23T01:00:24;101832.97;;;19.39;41.62
63395;BME280;49531;-34.520;150.798;2023-05-23T01:02:52;101829.22;;;19.40;41.54
63395;BME280;49531;-34.520;150.798;2023-05-23T01:05:20;101817.09;;;19.42;41.75
63395;BME280;49531;-34.520;150.798;2023-05-23T01:07:49;101817.25;;;19.47;41.83
63395;BME280;49531;-34.520;150.798;2023-05-23T01:10:19;101809.19;;;19.41;41.75
63395;BME280;49531;-34.520;150.798;2023-05-23T01:16:06;101811.56;;;19.55;41.89
63395;BME280;49531;-34.520;150.798;2023-05-23T01:18:40;101813.13;;;19.63;41.89
63395;BME280;49531;-34.520;150.798;2023-05-23T01:21:12;101811.00;;;19.65;41.91
63395;BME280;49531;-34.520;150.798;2023-05-23T01:29:37;101798.66;;;19.69;41.88
63395;BME280;49531;-34.520;150.798;2023-05-23T01:32:08;101807.44;;;19.83;41.93
63395;BME280;49531;-34.520;150.798;2023-05-23T01:34:37;101805.78;;;19.82;41.97
63395;BME280;49531;-34.520;150.798;2023-05-23T01:37:08;101811.91;;;19.77;42.57
63395;BME280;49531;-34.520;150.798;2023-05-23T01:39:36;101787.22;;;19.67;42.65
63395;BME280;49531;-34.520;150.798;2023-05-23T01:42:04;101782.53;;;19.74;42.55
63395;BME280;49531;-34.520;150.798;2023-05-23T01:44:33;101789.28;;;19.83;42.49
63395;BME280;49531;-34.520;150.798;2023-05-23T01:47:03;101781.16;;;19.83;42.43
63395;BME280;49531;-34.520;150.798;2023-05-23T01:49:31;101797.72;;;19.93;42.39
63395;BME280;49531;-34.520;150.798;2023-05-23T01:52:01;101769.13;;;19.79;42.47
63395;BME280;49531;-34.520;150.798;2023-05-23T01:54:28;101776.38;;;19.97;42.31
63395;BME280;49531;-34.520;150.798;2023-05-23T01:56:58;101770.25;;;20.02;42.16
63395;BME280;49531;-34.520;150.798;2023-05-23T01:59:26;101773.78;;;20.02;42.26
63395;BME280;49531;-34.520;150.798;2023-05-23T02:01:53;101771.31;;;20.01;42.33
63395;BME280;49531;-34.520;150.798;2023-05-23T02:04:21;101758.81;;;19.99;42.26
63395;BME280;49531;-34.520;150.798;2023-05-23T02:06:48;101755.16;;;20.06;42.29
63395;BME280;49531;-34.520;150.798;2023-05-23T02:09:16;101754.69;;;20.09;42.41
63395;BME280;49531;-34.520;150.798;2023-05-23T02:11:43;101752.81;;;20.09;42.21
63395;BME280;49531;-34.520;150.798;2023-05-23T02:14:10;101756.50;;;20.15;42.22
63395;BME280;49531;-34.520;150.798;2023-05-23T02:16:38;101752.13;;;20.14;42.35
63395;BME280;49531;-34.520;150.798;2023-05-23T02:19:05;101749.63;;;20.12;42.49
63395;BME280;49531;-34.520;150.798;2023-05-23T02:21:32;101740.56;;;20.18;42.33
63395;BME280;49531;-34.520;150.798;2023-05-23T02:23:59;101741.41;;;20.19;42.74
63395;BME280;49531;-34.520;150.798;2023-05-23T02:26:26;101729.25;;;20.21;42.67
63395;BME280;49531;-34.520;150.798;2023-05-23T02:28:54;101724.06;;;20.20;42.66
63395;BME280;49531;-34.520;150.798;2023-05-23T02:31:21;101730.09;;;20.22;42.69
63395;BME280;49531;-34.520;150.798;2023-05-23T02:33:48;101718.50;;;20.15;42.77
63395;BME280;49531;-34.520;150.798;2023-05-23T02:36:15;101732.94;;;20.27;42.97
63395;BME280;49531;-34.520;150.798;2023-05-23T02:38:42;101728.34;;;20.27;43.00
63395;BME280;49531;-34.520;150.798;2023-05-23T02:41:10;101719.00;;;20.23;43.12
63395;BME280;49531;-34.520;150.798;2023-05-23T02:43:37;101718.53;;;20.26;43.16
63395;BME280;49531;-34.520;150.798;2023-05-23T02:46:05;101719.59;;;20.25;43.60
63395;BME280;49531;-34.520;150.798;2023-05-23T02:48:32;101706.28;;;20.24;43.62
63395;BME280;49531;-34.520;150.798;2023-05-23T02:50:59;101702.50;;;20.25;43.84
63395;BME280;49531;-34.520;150.798;2023-05-23T02:53:26;101683.84;;;20.17;43.75
63395;BME280;49531;-34.520;150.798;2023-05-23T02:55:53;101678.16;;;20.07;44.33
63395;BME280;49531;-34.520;150.798;2023-05-23T02:58:20;101691.28;;;20.21;44.35
63395;BME280;49531;-34.520;150.798;2023-05-23T03:00:48;101679.13;;;20.24;44.52
63395;BME280;49531;-34.520;150.798;2023-05-23T03:03:15;101679.72;;;20.26;44.29
63395;BME280;49531;-34.520;150.798;2023-05-23T03:05:42;101658.84;;;20.15;44.50
63395;BME280;49531;-34.520;150.798;2023-05-23T03:08:09;101675.50;;;20.30;44.73
63395;BME280;49531;-34.520;150.798;2023-05-23T03:10:37;101657.44;;;20.24;44.90
63395;BME280;49531;-34.520;150.798;2023-05-23T03:13:05;101669.81;;;20.31;45.06
63395;BME280;49531;-34.520;150.798;2023-05-23T03:15:32;101659.09;;;20.25;45.09
63395;BME280;49531;-34.520;150.798;2023-05-23T03:17:59;101667.34;;;20.30;45.62
63395;BME280;49531;-34.520;150.798;2023-05-23T03:20:26;101653.19;;;20.28;46.19
63395;BME280;49531;-34.520;150.798;2023-05-23T03:22:53;101665.00;;;20.34;46.19
63395;BME280;49531;-34.520;150.798;2023-05-23T03:25:20;101655.44;;;20.31;46.28
63395;BME280;49531;-34.520;150.798;2023-05-23T03:27:47;101645.66;;;20.30;46.06
63395;BME280;49531;-34.520;150.798;2023-05-23T03:30:14;101645.66;;;20.30;46.55
63395;BME280;49531;-34.520;150.798;2023-05-23T03:32:41;101650.00;;;20.31;46.76
63395;BME280;49531;-34.520;150.798;2023-05-23T03:35:09;101641.41;;;20.34;46.78
63395;BME280;49531;-34.520;150.798;2023-05-23T03:37:36;101633.72;;;20.31;46.92
63395;BME280;49531;-34.520;150.798;2023-05-23T03:40:04;101633.59;;;20.26;47.13
63395;BME280;49531;-34.520;150.798;2023-05-23T03:42:32;101645.75;;;20.35;47.13
63395;BME280;49531;-34.520;150.798;2023-05-23T03:45:00;101636.78;;;20.35;47.35
63395;BME280;49531;-34.520;150.798;2023-05-23T03:47:27;101644.69;;;20.36;47.39
63395;BME280;49531;-34.520;150.798;2023-05-23T03:49:54;101644.50;;;20.38;47.47
63395;BME280;49531;-34.520;150.798;2023-05-23T03:52:21;101640.94;;;20.37;47.35
63395;BME280;49531;-34.520;150.798;2023-05-23T03:54:48;101633.25;;;20.34;47.44
63395;BME280;49531;-34.520;150.798;2023-05-23T03:57:15;101635.72;;;20.36;47.22
63395;BME280;49531;-34.520;150.798;2023-05-23T03:59:43;101631.00;;;20.31;47.84
63395;BME280;49531;-34.520;150.798;2023-05-23T04:02:10;101631.59;;;20.33;47.81
63395;BME280;49531;-34.520;150.798;2023-05-23T04:04:37;101638.44;;;20.36;47.80
63395;BME280;49531;-34.520;150.798;2023-05-23T04:07:05;101636.44;;;20.31;47.65
63395;BME280;49531;-34.520;150.798;2023-05-23T04:09:32;101628.06;;;20.33;47.72
63395;BME280;49531;-34.520;150.798;2023-05-23T04:11:59;101628.78;;;20.28;47.80
63395;BME280;49531;-34.520;150.798;2023-05-23T04:14:26;101636.34;;;20.38;47.89
63395;BME280;49531;-34.520;150.798;2023-05-23T04:16:54;101625.13;;;20.34;48.17
63395;BME280;49531;-34.520;150.798;2023-05-23T04:19:21;101626.31;;;20.38;48.37
63395;BME280;49531;-34.520;150.798;2023-05-23T04:21:48;101638.00;;;20.39;48.51
63395;BME280;49531;-34.520;150.798;2023-05-23T04:24:15;101616.75;;;20.36;48.65
63395;BME280;49531;-34.520;150.798;2023-05-23T04:26:42;101623.81;;;20.37;48.93
63395;BME280;49531;-34.520;150.798;2023-05-23T04:29:10;101623.63;;;20.38;48.88
63395;BME280;49531;-34.520;150.798;2023-05-23T04:31:37;101629.88;;;20.39;48.89
63395;BME280;49531;-34.520;150.798;2023-05-23T04:34:04;101631.75;;;20.38;49.19
63395;BME280;49531;-34.520;150.798;2023-05-23T04:36:33;101621.34;;;20.35;48.98
63395;BME280;49531;-34.520;150.798;2023-05-23T04:39:04;101641.88;;;20.43;49.10
63395;BME280;49531;-34.520;150.798;2023-05-23T04:41:31;101637.25;;;20.43;48.87
63395;BME280;49531;-34.520;150.798;2023-05-23T04:43:59;101642.69;;;20.43;48.80
63395;BME280;49531;-34.520;150.798;2023-05-23T04:46:26;101649.19;;;20.42;48.75
63395;BME280;49531;-34.520;150.798;2023-05-23T04:48:53;101650.00;;;20.43;48.76
63395;BME280;49531;-34.520;150.798;2023-05-23T04:51:21;101633.84;;;20.36;48.50
63395;BME280;49531;-34.520;150.798;2023-05-23T04:53:50;101647.53;;;20.41;48.49
63395;BME280;49531;-34.520;150.798;2023-05-23T04:56:18;101642.34;;;20.40;48.53
63395;BME280;49531;-34.520;150.798;2023-05-23T04:58:46;101628.31;;;20.31;48.34
63395;BME280;49531;-34.520;150.798;2023-05-23T05:01:14;101638.00;;;20.39;48.34
63395;BME280;49531;-34.520;150.798;2023-05-23T05:03:41;101653.66;;;20.48;48.38
63395;BME280;49531;-34.520;150.798;2023-05-23T05:06:08;101650.13;;;20.48;48.30
63395;BME280;49531;-34.520;150.798;2023-05-23T05:08:36;101649.53;;;20.46;48.30
63395;BME280;49531;-34.520;150.798;2023-05-23T05:11:06;101640.44;;;20.40;48.26
63395;BME280;49531;-34.520;150.798;2023-05-23T05:13:33;101647.06;;;20.44;48.10
63395;BME280;49531;-34.520;150.798;2023-05-23T05:16:00;101645.41;;;20.43;48.27
63395;BME280;49531;-34.520;150.798;2023-05-23T05:18:28;101642.09;;;20.41;48.10
63395;BME280;49531;-34.520;150.798;2023-05-23T05:20:56;101630.53;;;20.34;48.38
63395;BME280;49531;-34.520;150.798;2023-05-23T05:23:25;101658.03;;;20.49;48.20
63395;BME280;49531;-34.520;150.798;2023-05-23T05:25:54;101629.38;;;20.30;48.21
63395;BME280;49531;-34.520;150.798;2023-05-23T05:28:21;101653.78;;;20.42;48.17
63395;BME280;49531;-34.520;150.798;2023-05-23T05:30:48;101659.56;;;20.45;48.19
63395;BME280;49531;-34.520;150.798;2023-05-23T05:33:20;101651.78;;;20.37;48.28
63395;BME280;49531;-34.520;150.798;2023-05-23T05:35:50;101660.41;;;20.46;48.21
63395;BME280;49531;-34.520;150.798;2023-05-23T05:38:17;101651.53;;;20.50;48.15
63395;BME280;49531;-34.520;150.798;2023-05-23T05:40:45;101662.41;;;20.50;48.10
63395;BME280;49531;-34.520;150.798;2023-05-23T05:43:12;101659.91;;;20.49;48.07
63395;BME280;49531;-34.520;150.798;2023-05-23T05:45:39;101662.88;;;20.47;48.29
63395;BME280;49531;-34.520;150.798;2023-05-23T05:48:06;101644.94;;;20.35;48.12
63395;BME280;49531;-34.520;150.798;2023-05-23T05:50:33;101654.50;;;20.37;48.01
63395;BME280;49531;-34.520;150.798;2023-05-23T05:53:01;101663.09;;;20.46;47.69
63395;BME280;49531;-34.520;150.798;2023-05-23T05:55:29;101650.13;;;20.36;47.52
63395;BME280;49531;-34.520;150.798;2023-05-23T05:57:56;101663.34;;;20.44;47.64
63395;BME280;49531;-34.520;150.798;2023-05-23T06:00:23;101657.22;;;20.37;47.69
63395;BME280;49531;-34.520;150.798;2023-05-23T06:02:50;101660.03;;;20.42;47.82
63395;BME280;49531;-34.520;150.798;2023-05-23T06:05:19;101649.31;;;20.36;47.82
63395;BME280;49531;-34.520;150.798;2023-05-23T06:07:48;101669.75;;;20.38;46.93
63395;BME280;49531;-34.520;150.798;2023-05-23T06:10:15;101664.41;;;20.31;48.19
63395;BME280;49531;-34.520;150.798;2023-05-23T06:12:43;101662.50;;;20.44;48.63
63395;BME280;49531;-34.520;150.798;2023-05-23T06:15:11;101664.63;;;20.53;48.27
63395;BME280;49531;-34.520;150.798;2023-05-23T06:17:39;101675.25;;;20.67;48.01
63395;BME280;49531;-34.520;150.798;2023-05-23T06:20:07;101667.94;;;20.67;47.87
63395;BME280;49531;-34.520;150.798;2023-05-23T06:22:34;101668.28;;;20.71;47.60
63395;BME280;49531;-34.520;150.798;2023-05-23T06:25:03;101685.38;;;20.83;47.51
63395;BME280;49531;-34.520;150.798;2023-05-23T06:27:31;101681.81;;;20.82;47.32
63395;BME280;49531;-34.520;150.798;2023-05-23T06:29:58;101685.00;;;20.91;47.24
63395;BME280;49531;-34.520;150.798;2023-05-23T06:32:25;101690.66;;;20.89;47.29
63395;BME280;49531;-34.520;150.798;2023-05-23T06:34:52;101653.03;;;20.81;47.17
63395;BME280;49531;-34.520;150.798;2023-05-23T06:37:19;101678.03;;;20.95;47.14
63395;BME280;49531;-34.520;150.798;2023-05-23T06:39:46;101678.03;;;20.95;47.10
63395;BME280;49531;-34.520;150.798;2023-05-23T06:42:14;101668.69;;;20.91;46.98
63395;BME280;49531;-34.520;150.798;2023-05-23T06:44:42;101683.81;;;20.98;46.83
63395;BME280;49531;-34.520;150.798;2023-05-23T06:47:09;101675.78;;;20.92;46.91
63395;BME280;49531;-34.520;150.798;2023-05-23T06:49:36;101692.88;;;21.04;46.83
63395;BME280;49531;-34.520;150.798;2023-05-23T06:52:03;101679.69;;;20.96;46.80
63395;BME280;49531;-34.520;150.798;2023-05-23T06:54:30;101694.78;;;21.04;47.07
63395;BME280;49531;-34.520;150.798;2023-05-23T06:56:58;101688.53;;;21.03;46.72
63395;BME280;49531;-34.520;150.798;2023-05-23T06:59:25;101693.47;;;21.06;46.68
63395;BME280;49531;-34.520;150.798;2023-05-23T07:01:52;101681.19;;;21.04;46.64
63395;BME280;49531;-34.520;150.798;2023-05-23T07:04:19;101697.59;;;21.09;46.62
63395;BME280;49531;-34.520;150.798;2023-05-23T07:06:46;101688.19;;;21.00;46.75
63395;BME280;49531;-34.520;150.798;2023-05-23T07:09:14;101696.44;;;21.05;46.47
63395;BME280;49531;-34.520;150.798;2023-05-23T07:11:41;101702.09;;;21.03;46.57
63395;BME280;49531;-34.520;150.798;2023-05-23T07:14:08;101713.44;;;21.12;46.52
63395;BME280;49531;-34.520;150.798;2023-05-23T07:16:35;101705.75;;;21.09;46.35
63395;BME280;49531;-34.520;150.798;2023-05-23T07:19:02;101708.13;;;21.05;46.67
63395;BME280;49531;-34.520;150.798;2023-05-23T07:21:30;101718.50;;;21.08;46.59
63395;BME280;49531;-34.520;150.798;2023-05-23T07:23:57;101717.00;;;21.01;46.72
63395;BME280;49531;-34.520;150.798;2023-05-23T07:26:24;101700.13;;;20.87;46.74
63395;BME280;49531;-34.520;150.798;2023-05-23T07:28:53;101715.34;;;21.00;46.82
63395;BME280;49531;-34.520;150.798;2023-05-23T07:31:20;101711.69;;;20.94;46.67
63395;BME280;49531;-34.520;150.798;2023-05-23T07:33:47;101721.59;;;21.00;46.73
63395;BME280;49531;-34.520;150.798;2023-05-23T07:36:14;101722.41;;;21.01;46.64
63395;BME280;49531;-34.520;150.798;2023-05-23T07:38:42;101731.88;;;20.98;46.79
63395;BME280;49531;-34.520;150.798;2023-05-23T07:41:09;101736.72;;;20.84;47.26
63395;BME280;49531;-34.520;150.798;2023-05-23T07:43:36;101736.50;;;20.86;47.06
63395;BME280;49531;-34.520;150.798;2023-05-23T07:46:03;101747.94;;;20.88;46.99
63395;BME280;49531;-34.520;150.798;2023-05-23T07:48:31;101755.03;;;20.89;47.12
63395;BME280;49531;-34.520;150.798;2023-05-23T07:50:58;101758.22;;;20.86;46.99
63395;BME280;49531;-34.520;150.798;2023-05-23T07:53:25;101754.44;;;20.87;46.86
63395;BME280;49531;-34.520;150.798;2023-05-23T07:55:52;101756.44;;;20.91;46.84
63395;BME280;49531;-34.520;150.798;2023-05-23T07:58:19;101757.75;;;20.89;46.81
63395;BME280;49531;-34.520;150.798;2023-05-23T08:00:47;101762.56;;;20.87;46.92
63395;BME280;49531;-34.520;150.798;2023-05-23T08:03:15;101769.06;;;20.86;46.88
63395;BME280;49531;-34.520;150.798;2023-05-23T08:05:44;101767.66;;;20.83;46.83
63395;BME280;49531;-34.520;150.798;2023-05-23T08:08:11;101776.75;;;20.89;46.76
63395;BME280;49531;-34.520;150.798;2023-05-23T08:10:38;101767.06;;;20.81;46.74
63395;BME280;49531;-34.520;150.798;2023-05-23T08:13:05;101777.47;;;20.84;46.73
63395;BME280;49531;-34.520;150.798;2023-05-23T08:15:33;101772.25;;;20.83;46.68
63395;BME280;49531;-34.520;150.798;2023-05-23T08:18:00;101777.22;;;20.86;46.71
63395;BME280;49531;-34.520;150.798;2023-05-23T08:20:27;101773.91;;;20.84;46.71
63395;BME280;49531;-34.520;150.798;2023-05-23T08:22:58;101776.16;;;20.87;46.45
63395;BME280;49531;-34.520;150.798;2023-05-23T08:25:26;101789.53;;;20.77;47.39
63395;BME280;49531;-34.520;150.798;2023-05-23T08:27:58;101775.69;;;20.67;47.43
63395;BME280;49531;-34.520;150.798;2023-05-23T08:30:26;101783.63;;;20.68;46.84
63395;BME280;49531;-34.520;150.798;2023-05-23T08:32:55;101780.66;;;20.70;46.68
63395;BME280;49531;-34.520;150.798;2023-05-23T08:35:23;101771.94;;;20.68;46.73
63395;BME280;49531;-34.520;150.798;2023-05-23T08:37:50;101768.50;;;20.72;46.75
63395;BME280;49531;-34.520;150.798;2023-05-23T08:40:19;101779.38;;;20.72;46.59
63395;BME280;49531;-34.520;150.798;2023-05-23T08:42:48;101777.47;;;20.73;46.55
63395;BME280;49531;-34.520;150.798;2023-05-23T08:45:16;101773.94;;;20.72;46.42
63395;BME280;49531;-34.520;150.798;2023-05-23T08:47:44;101775.81;;;20.72;46.37
63395;BME280;49531;-34.520;150.798;2023-05-23T08:50:14;101780.66;;;20.70;46.46
63395;BME280;49531;-34.520;150.798;2023-05-23T08:52:54;101789.88;;;20.69;46.48
63395;BME280;49531;-34.520;150.798;2023-05-23T08:55:24;101774.41;;;20.57;46.38
63395;BME280;49531;-34.520;150.798;2023-05-23T08:57:53;101780.91;;;20.68;46.32
63395;BME280;49531;-34.520;150.798;2023-05-23T09:00:21;101779.94;;;20.62;46.31
63395;BME280;49531;-34.520;150.798;2023-05-23T09:02:50;101788.91;;;20.63;46.31
63395;BME280;49531;-34.520;150.798;2023-05-23T09:05:18;101788.09;;;20.62;46.27
63395;BME280;49531;-34.520;150.798;2023-05-23T09:07:46;101782.78;;;20.56;46.34
63395;BME280;49531;-34.520;150.798;2023-05-23T09:10:15;101796.13;;;20.57;46.38
63395;BME280;49531;-34.520;150.798;2023-05-23T09:12:43;101796.34;;;20.56;46.34
63395;BME280;49531;-34.520;150.798;2023-05-23T09:15:10;101807.66;;;20.53;46.30
63395;BME280;49531;-34.520;150.798;2023-05-23T09:17:38;101800.00;;;20.50;46.44
63395;BME280;49531;-34.520;150.798;2023-05-23T09:20:12;101806.84;;;20.52;46.47
63395;BME280;49531;-34.520;150.798;2023-05-23T09:22:44;101798.44;;;20.42;46.30
63395;BME280;49531;-34.520;150.798;2023-05-23T09:25:13;101803.16;;;20.47;46.31
63395;BME280;49531;-34.520;150.798;2023-05-23T09:27:41;101805.53;;;20.43;46.41
63395;BME280;49531;-34.520;150.798;2023-05-23T09:30:10;101802.22;;;20.41;46.43
63395;BME280;49531;-34.520;150.798;2023-05-23T09:32:37;101790.63;;;20.34;46.47
63395;BME280;49531;-34.520;150.798;2023-05-23T09:35:06;101794.16;;;20.35;46.54
63395;BME280;49531;-34.520;150.798;2023-05-23T09:37:42;101795.22;;;20.34;46.26
63395;BME280;49531;-34.520;150.798;2023-05-23T09:40:12;101810.09;;;20.31;46.56
63395;BME280;49531;-34.520;150.798;2023-05-23T09:42:43;101810.09;;;20.31;46.57
63395;BME280;49531;-34.520;150.798;2023-05-23T09:45:12;101799.34;;;20.24;46.62
63395;BME280;49531;-34.520;150.798;2023-05-23T09:47:47;101809.34;;;20.24;46.71
63395;BME280;49531;-34.520;150.798;2023-05-23T09:50:16;101805.00;;;20.23;46.56
63395;BME280;49531;-34.520;150.798;2023-05-23T09:52:43;101807.09;;;20.21;46.59
63395;BME280;49531;-34.520;150.798;2023-05-23T09:55:11;101802.38;;;20.16;46.71
63395;BME280;49531;-34.520;150.798;2023-05-23T09:57:41;101806.59;;;20.12;46.67
63395;BME280;49531;-34.520;150.798;2023-05-23T10:00:09;101801.63;;;20.09;46.82
63395;BME280;49531;-34.520;150.798;2023-05-23T10:03:08;101814.38;;;20.09;46.74
63395;BME280;49531;-34.520;150.798;2023-05-23T10:05:42;101805.28;;;20.03;46.67
63395;BME280;49531;-34.520;150.798;2023-05-23T10:08:23;101815.28;;;20.03;46.82
63395;BME280;49531;-34.520;150.798;2023-05-23T10:14:01;101804.78;;;19.94;46.77
63395;BME280;49531;-34.520;150.798;2023-05-23T10:16:41;101818.47;;;19.99;46.79
63395;BME280;49531;-34.520;150.798;2023-05-23T10:19:22;101804.50;;;19.84;46.98
63395;BME280;49531;-34.520;150.798;2023-05-23T10:21:59;101822.13;;;19.93;47.00
63395;BME280;49531;-34.520;150.798;2023-05-23T10:24:28;101819.88;;;19.90;46.93
63395;BME280;49531;-34.520;150.798;2023-05-23T10:26:56;101820.31;;;19.87;46.88
63395;BME280;49531;-34.520;150.798;2023-05-23T10:29:24;101827.84;;;19.85;47.04
63395;BME280;49531;-34.520;150.798;2023-05-23T10:31:52;101837.03;;;19.84;47.10
63395;BME280;49531;-34.520;150.798;2023-05-23T10:34:26;101829.38;;;19.81;46.95
63395;BME280;49531;-34.520;150.798;2023-05-23T10:37:02;101820.50;;;19.74;47.41
63395;BME280;49531;-34.520;150.798;2023-05-23T10:39:48;101830.03;;;19.77;47.09
63395;BME280;49531;-34.520;150.798;2023-05-23T10:42:40;101828.63;;;19.74;47.19
63395;BME280;49531;-34.520;150.798;2023-05-23T10:45:17;101824.72;;;19.70;47.16
63395;BME280;49531;-34.520;150.798;2023-05-23T10:47:47;101823.88;;;19.70;47.34
63395;BME280;49531;-34.520;150.798;2023-05-23T10:50:28;101824.09;;;19.68;47.41
63395;BME280;49531;-34.520;150.798;2023-05-23T10:53:00;101828.78;;;19.61;47.36
63395;BME280;49531;-34.520;150.798;2023-05-23T10:55:32;101828.56;;;19.62;47.47
63395;BME280;49531;-34.520;150.798;2023-05-23T10:58:16;101832.78;;;19.58;47.51
63395;BME280;49531;-34.520;150.798;2023-05-23T11:00:58;101818.69;;;19.50;47.34
63395;BME280;49531;-34.520;150.798;2023-05-23T11:06:31;101825.38;;;19.47;47.57
63395;BME280;49531;-34.520;150.798;2023-05-23T11:09:05;101823.34;;;19.43;47.55
63395;BME280;49531;-34.520;150.798;2023-05-23T11:11:53;101836.00;;;19.49;47.50
63395;BME280;49531;-34.520;150.798;2023-05-23T11:14:51;101838.09;;;19.47;47.40
63395;BME280;49531;-34.520;150.798;2023-05-23T11:17:30;101820.94;;;19.35;47.45
63395;BME280;49531;-34.520;150.798;2023-05-23T11:20:02;101824.69;;;19.33;47.50
63395;BME280;49531;-34.520;150.798;2023-05-23T11:22:33;101835.09;;;19.37;47.61
63395;BME280;49531;-34.520;150.798;2023-05-23T11:25:05;101840.72;;;19.35;47.57
63395;BME280;49531;-34.520;150.798;2023-05-23T11:27:34;101839.75;;;19.29;47.72
63395;BME280;49531;-34.520;150.798;2023-05-23T11:30:12;101847.03;;;19.29;47.76
63395;BME280;49531;-34.520;150.798;2023-05-23T11:32:39;101848.94;;;19.28;47.86
63395;BME280;49531;-34.520;150.798;2023-05-23T11:35:09;101847.50;;;19.26;47.78
63395;BME280;49531;-34.520;150.798;2023-05-23T11:37:38;101849.81;;;19.22;47.73
63395;BME280;49531;-34.520;150.798;2023-05-23T11:40:24;101857.72;;;19.24;47.81
63395;BME280;49531;-34.520;150.798;2023-05-23T11:42:53;101847.34;;;19.21;47.77
63395;BME280;49531;-34.520;150.798;2023-05-23T11:45:22;101850.25;;;19.19;47.60
63395;BME280;49531;-34.520;150.798;2023-05-23T11:47:49;101849.69;;;19.17;47.65
63395;BME280;49531;-34.520;150.798;2023-05-23T11:50:16;101839.75;;;19.11;47.84
63395;BME280;49531;-34.520;150.798;2023-05-23T11:52:46;101832.91;;;19.09;47.91
63395;BME280;49531;-34.520;150.798;2023-05-23T11:55:19;101826.88;;;19.07;47.65
63395;BME280;49531;-34.520;150.798;2023-05-23T11:57:47;101827.69;;;19.07;47.74
63395;BME280;49531;-34.520;150.798;2023-05-23T12:00:15;101818.81;;;19.00;47.79
63395;BME280;49531;-34.520;150.798;2023-05-23T12:02:44;101816.50;;;19.04;47.85
63395;BME280;49531;-34.520;150.798;2023-05-23T12:05:13;101819.19;;;19.04;47.90
63395;BME280;49531;-34.520;150.798;2023-05-23T12:07:44;101820.69;;;18.99;47.92
63395;BME280;49531;-34.520;150.798;2023-05-23T12:10:15;101823.63;;;18.98;47.87
63395;BME280;49531;-34.520;150.798;2023-05-23T12:12:43;101823.84;;;18.96;47.79
63395;BME280;49531;-34.520;150.798;2023-05-23T12:15:11;101823.47;;;18.93;48.15
63395;BME280;49531;-34.520;150.798;2023-05-23T12:17:43;101816.59;;;18.90;48.04
63395;BME280;49531;-34.520;150.798;2023-05-23T12:20:12;101819.53;;;18.89;47.97
63395;BME280;49531;-34.520;150.798;2023-05-23T12:22:40;101816.00;;;18.88;48.13
63395;BME280;49531;-34.520;150.798;2023-05-23T12:25:09;101809.16;;;18.86;48.08
63395;BME280;49531;-34.520;150.798;2023-05-23T12:27:38;101806.44;;;18.86;48.10
63395;BME280;49531;-34.520;150.798;2023-05-23T12:30:09;101800.44;;;18.84;48.17
63395;BME280;49531;-34.520;150.798;2023-05-23T12:32:41;101796.97;;;18.77;48.41
63395;BME280;49531;-34.520;150.798;2023-05-23T12:35:10;101789.53;;;18.72;48.71
63395;BME280;49531;-34.520;150.798;2023-05-23T12:37:40;101801.19;;;18.73;48.90
63395;BME280;49531;-34.520;150.798;2023-05-23T12:40:13;101797.25;;;18.69;48.74
63395;BME280;49531;-34.520;150.798;2023-05-23T12:42:49;101796.66;;;18.67;48.90
63395;BME280;49531;-34.520;150.798;2023-05-23T12:45:19;101806.41;;;18.68;48.83